UAL1365 KEWR-KRDU
Flight info
| Callsign | UAL1365 |
|---|---|
| Flight time | 1h 8m |
| Altitude | 26000 |
| Route | ELVAE NECCK WHITE Q409 VILLS NALES Q141 HOUKY TAQLE3 |
| Aircraft | A319/M-SDE3GHIRWYZ/LB1 |
Departure
| Time | 2026-05-06 23:43 |
|---|---|
| Airport | Newark Liberty International Airport (KEWR) |
Arrival
| Time | 2026-05-07 00:51 |
|---|---|
| Airport | Raleigh-Durham International Airport (KRDU) |
| Time | Latitude | Longitude | Altitude | Speed | Heading |
|---|---|---|---|---|---|
| 2026-05-06 23:03 | 40.69709 | -74.17467 | 22 ft | 0 kts | 305° |
| 2026-05-06 23:27 | 40.69706 | -74.17461 | 22 ft | 4 kts | 305° |
| 2026-05-06 23:27 | 40.69693 | -74.17437 | 22 ft | 4 kts | 323° |
| 2026-05-06 23:27 | 40.69673 | -74.17434 | 24 ft | 4 kts | 26° |
| 2026-05-06 23:27 | 40.69652 | -74.17453 | 24 ft | 4 kts | 41° |
| 2026-05-06 23:28 | 40.69645 | -74.17461 | 24 ft | 0 kts | 41° |
| 2026-05-06 23:34 | 40.69646 | -74.17459 | 24 ft | 1 kts | 40° |
| 2026-05-06 23:35 | 40.69662 | -74.17441 | 23 ft | 5 kts | 40° |
| 2026-05-06 23:35 | 40.69701 | -74.17397 | 22 ft | 9 kts | 40° |
| 2026-05-06 23:35 | 40.69759 | -74.17336 | 22 ft | 12 kts | 35° |
| 2026-05-06 23:35 | 40.69822 | -74.17256 | 23 ft | 13 kts | 44° |
| 2026-05-06 23:36 | 40.69844 | -74.17203 | 24 ft | 5 kts | 119° |
| 2026-05-06 23:36 | 40.69811 | -74.17159 | 22 ft | 8 kts | 140° |
| 2026-05-06 23:36 | 40.69758 | -74.17105 | 22 ft | 12 kts | 144° |
| 2026-05-06 23:36 | 40.69678 | -74.17044 | 22 ft | 15 kts | 155° |
| 2026-05-06 23:37 | 40.69648 | -74.17028 | 24 ft | 0 kts | 159° |
| 2026-05-06 23:37 | 40.69631 | -74.17020 | 22 ft | 5 kts | 158° |
| 2026-05-06 23:38 | 40.69626 | -74.16974 | 23 ft | 6 kts | 72° |
| 2026-05-06 23:38 | 40.69631 | -74.16958 | 22 ft | 0 kts | 69° |
| 2026-05-06 23:39 | 40.69635 | -74.16946 | 22 ft | 4 kts | 69° |
| 2026-05-06 23:40 | 40.69652 | -74.16884 | 22 ft | 10 kts | 71° |
| 2026-05-06 23:40 | 40.69675 | -74.16793 | 24 ft | 11 kts | 71° |
| 2026-05-06 23:40 | 40.69717 | -74.16721 | 22 ft | 10 kts | 19° |
| 2026-05-06 23:40 | 40.69786 | -74.16676 | 21 ft | 12 kts | 26° |
| 2026-05-06 23:41 | 40.69866 | -74.16624 | 21 ft | 13 kts | 26° |
| 2026-05-06 23:41 | 40.69946 | -74.16574 | 21 ft | 12 kts | 25° |
| 2026-05-06 23:41 | 40.70001 | -74.16535 | 21 ft | 8 kts | 24° |
| 2026-05-06 23:41 | 40.70059 | -74.16494 | 21 ft | 10 kts | 47° |
| 2026-05-06 23:42 | 40.70060 | -74.16390 | 20 ft | 10 kts | 95° |
| 2026-05-06 23:42 | 40.70024 | -74.16361 | 19 ft | 0 kts | 210° |
| 2026-05-06 23:42 | 40.69978 | -74.16394 | 19 ft | 29 kts | 207° |
| 2026-05-06 23:42 | 40.69605 | -74.16632 | 23 ft | 91 kts | 206° |
| 2026-05-06 23:43 | 40.68862 | -74.17107 | 33 ft | 144 kts | 206° |
| 2026-05-06 23:43 | 40.67968 | -74.17639 | 652 ft | 140 kts | 197° |
| 2026-05-06 23:43 | 40.66969 | -74.17646 | 1131 ft | 154 kts | 177° |
| 2026-05-06 23:43 | 40.65862 | -74.17396 | 1562 ft | 169 kts | 178° |
| 2026-05-06 23:44 | 40.64685 | -74.17649 | 1842 ft | 181 kts | 216° |
| 2026-05-06 23:44 | 40.63666 | -74.18735 | 2414 ft | 193 kts | 224° |
| 2026-05-06 23:44 | 40.62600 | -74.19902 | 3104 ft | 206 kts | 219° |
| 2026-05-06 23:44 | 40.61325 | -74.20768 | 4044 ft | 208 kts | 208° |
| 2026-05-06 23:45 | 40.59981 | -74.21514 | 4744 ft | 211 kts | 208° |
| 2026-05-06 23:45 | 40.58618 | -74.22234 | 4948 ft | 210 kts | 207° |
| 2026-05-06 23:45 | 40.57266 | -74.22942 | 5008 ft | 209 kts | 207° |
| 2026-05-06 23:45 | 40.55909 | -74.23647 | 5290 ft | 211 kts | 207° |
| 2026-05-06 23:46 | 40.54523 | -74.24362 | 5929 ft | 222 kts | 207° |
| 2026-05-06 23:46 | 40.53007 | -74.25165 | 6339 ft | 246 kts | 207° |
| 2026-05-06 23:46 | 40.51379 | -74.26037 | 6999 ft | 257 kts | 208° |
| 2026-05-06 23:46 | 40.49712 | -74.26912 | 7884 ft | 259 kts | 208° |
| 2026-05-06 23:47 | 40.48002 | -74.27709 | 8782 ft | 266 kts | 200° |
| 2026-05-06 23:47 | 40.46103 | -74.27843 | 9645 ft | 279 kts | 187° |
| 2026-05-06 23:47 | 40.44139 | -74.27753 | 10264 ft | 291 kts | 187° |
| 2026-05-06 23:47 | 40.42039 | -74.27647 | 10511 ft | 314 kts | 186° |
| 2026-05-06 23:48 | 40.39782 | -74.27522 | 10821 ft | 332 kts | 185° |
| 2026-05-06 23:48 | 40.37446 | -74.27374 | 11477 ft | 338 kts | 185° |
| 2026-05-06 23:48 | 40.35081 | -74.27213 | 12218 ft | 342 kts | 185° |
| 2026-05-06 23:48 | 40.32698 | -74.27050 | 12972 ft | 344 kts | 185° |
| 2026-05-06 23:49 | 40.30333 | -74.26894 | 13698 ft | 346 kts | 185° |
| 2026-05-06 23:49 | 40.27921 | -74.26742 | 14333 ft | 349 kts | 185° |
| 2026-05-06 23:49 | 40.25475 | -74.26595 | 14897 ft | 354 kts | 186° |
| 2026-05-06 23:49 | 40.22987 | -74.26452 | 15400 ft | 361 kts | 186° |
| 2026-05-06 23:50 | 40.20457 | -74.26307 | 15959 ft | 366 kts | 186° |
| 2026-05-06 23:50 | 40.15305 | -74.26014 | 17109 ft | 375 kts | 186° |
| 2026-05-06 23:50 | 40.12679 | -74.25858 | 17683 ft | 380 kts | 186° |
| 2026-05-06 23:51 | 40.10023 | -74.25696 | 18241 ft | 385 kts | 186° |
| 2026-05-06 23:51 | 40.07329 | -74.25532 | 18750 ft | 389 kts | 187° |
| 2026-05-06 23:51 | 40.04619 | -74.25370 | 19264 ft | 392 kts | 187° |
| 2026-05-06 23:51 | 40.01913 | -74.25407 | 19778 ft | 383 kts | 198° |
| 2026-05-06 23:52 | 39.99449 | -74.26435 | 20337 ft | 365 kts | 217° |
| 2026-05-06 23:52 | 39.98054 | -74.27604 | 20716 ft | 358 kts | 224° |
| 2026-05-06 23:52 | 39.95369 | -74.30174 | 21483 ft | 359 kts | 225° |
| 2026-05-06 23:52 | 39.94034 | -74.31456 | 21847 ft | 360 kts | 225° |
| 2026-05-06 23:53 | 39.92009 | -74.33394 | 22389 ft | 361 kts | 225° |
| 2026-05-06 23:53 | 39.89980 | -74.35329 | 22921 ft | 363 kts | 225° |
| 2026-05-06 23:53 | 39.87931 | -74.37280 | 23483 ft | 364 kts | 226° |
| 2026-05-06 23:53 | 39.85884 | -74.39225 | 23928 ft | 364 kts | 226° |
| 2026-05-06 23:54 | 39.83831 | -74.41172 | 24288 ft | 366 kts | 225° |
| 2026-05-06 23:54 | 39.81813 | -74.43139 | 24633 ft | 365 kts | 229° |
| 2026-05-06 23:54 | 39.79964 | -74.45387 | 25014 ft | 364 kts | 232° |
| 2026-05-06 23:54 | 39.78176 | -74.47719 | 25401 ft | 365 kts | 233° |
| 2026-05-06 23:55 | 39.76411 | -74.50097 | 25758 ft | 366 kts | 234° |
| 2026-05-06 23:55 | 39.74652 | -74.52487 | 25845 ft | 365 kts | 234° |
| 2026-05-06 23:55 | 39.72895 | -74.54860 | 25868 ft | 364 kts | 234° |
| 2026-05-06 23:55 | 39.71131 | -74.57219 | 25871 ft | 364 kts | 233° |
| 2026-05-06 23:56 | 39.69361 | -74.59570 | 25870 ft | 364 kts | 233° |
| 2026-05-06 23:56 | 39.67590 | -74.61910 | 25874 ft | 364 kts | 233° |
| 2026-05-06 23:56 | 39.65816 | -74.64250 | 25873 ft | 364 kts | 233° |
| 2026-05-06 23:56 | 39.64042 | -74.66589 | 25875 ft | 363 kts | 233° |
| 2026-05-06 23:57 | 39.62266 | -74.68933 | 25874 ft | 363 kts | 233° |
| 2026-05-06 23:57 | 39.60494 | -74.71268 | 25874 ft | 363 kts | 233° |
| 2026-05-06 23:57 | 39.58722 | -74.73605 | 25875 ft | 363 kts | 233° |
| 2026-05-06 23:57 | 39.56949 | -74.75941 | 25873 ft | 363 kts | 233° |
| 2026-05-06 23:58 | 39.55176 | -74.78275 | 25876 ft | 363 kts | 233° |
| 2026-05-06 23:58 | 39.53401 | -74.80612 | 25873 ft | 363 kts | 233° |
| 2026-05-06 23:58 | 39.51628 | -74.82940 | 25873 ft | 363 kts | 233° |
| 2026-05-06 23:58 | 39.49853 | -74.85264 | 25871 ft | 363 kts | 233° |
| 2026-05-06 23:59 | 39.48078 | -74.87590 | 25844 ft | 363 kts | 233° |
| 2026-05-06 23:59 | 39.46302 | -74.89918 | 25845 ft | 363 kts | 233° |
| 2026-05-06 23:59 | 39.44528 | -74.92248 | 25847 ft | 364 kts | 233° |
| 2026-05-06 23:59 | 39.42771 | -74.94548 | 25846 ft | 365 kts | 233° |
| 2026-05-07 00:00 | 39.40982 | -74.96881 | 25850 ft | 365 kts | 233° |
| 2026-05-07 00:00 | 39.39185 | -74.99216 | 25854 ft | 365 kts | 233° |
| 2026-05-07 00:00 | 39.37394 | -75.01548 | 25863 ft | 365 kts | 233° |
| 2026-05-07 00:00 | 39.35609 | -75.03882 | 25864 ft | 365 kts | 233° |
| 2026-05-07 00:01 | 39.33827 | -75.06212 | 25890 ft | 365 kts | 233° |
| 2026-05-07 00:01 | 39.32039 | -75.08543 | 25908 ft | 365 kts | 233° |
| 2026-05-07 00:01 | 39.30252 | -75.10865 | 25900 ft | 364 kts | 233° |
| 2026-05-07 00:01 | 39.28469 | -75.13180 | 25851 ft | 363 kts | 233° |
| 2026-05-07 00:02 | 39.26690 | -75.15487 | 25850 ft | 363 kts | 233° |
| 2026-05-07 00:02 | 39.24907 | -75.17796 | 25851 ft | 363 kts | 233° |
| 2026-05-07 00:02 | 39.23121 | -75.20111 | 25853 ft | 364 kts | 233° |
| 2026-05-07 00:02 | 39.21329 | -75.22435 | 25852 ft | 364 kts | 233° |
| 2026-05-07 00:03 | 39.19544 | -75.24750 | 25841 ft | 364 kts | 233° |
| 2026-05-07 00:03 | 39.17754 | -75.27068 | 25841 ft | 364 kts | 233° |
| 2026-05-07 00:03 | 39.15967 | -75.29381 | 25840 ft | 364 kts | 233° |
| 2026-05-07 00:03 | 39.14178 | -75.31693 | 25839 ft | 364 kts | 233° |
| 2026-05-07 00:04 | 39.12386 | -75.34003 | 25838 ft | 364 kts | 233° |
| 2026-05-07 00:04 | 39.10597 | -75.36309 | 25837 ft | 364 kts | 233° |
| 2026-05-07 00:04 | 39.08804 | -75.38617 | 25814 ft | 364 kts | 233° |
| 2026-05-07 00:04 | 39.07012 | -75.40926 | 25818 ft | 365 kts | 233° |
| 2026-05-07 00:05 | 39.05216 | -75.43241 | 25838 ft | 365 kts | 233° |
| 2026-05-07 00:05 | 39.03443 | -75.45525 | 25843 ft | 366 kts | 233° |
| 2026-05-07 00:05 | 39.01648 | -75.47836 | 25848 ft | 365 kts | 233° |
| 2026-05-07 00:05 | 38.99849 | -75.50143 | 25850 ft | 365 kts | 233° |
| 2026-05-07 00:06 | 38.98030 | -75.52475 | 25853 ft | 365 kts | 233° |
| 2026-05-07 00:06 | 38.96235 | -75.54778 | 25856 ft | 364 kts | 233° |
| 2026-05-07 00:06 | 38.94443 | -75.57079 | 25858 ft | 364 kts | 233° |
| 2026-05-07 00:06 | 38.92672 | -75.59347 | 25860 ft | 364 kts | 233° |
| 2026-05-07 00:07 | 38.90879 | -75.61641 | 25821 ft | 364 kts | 233° |
| 2026-05-07 00:07 | 38.89212 | -75.64064 | 25849 ft | 360 kts | 240° |
| 2026-05-07 00:07 | 38.87892 | -75.66779 | 25851 ft | 357 kts | 246° |
| 2026-05-07 00:07 | 38.86657 | -75.69544 | 25860 ft | 357 kts | 246° |
| 2026-05-07 00:08 | 38.85418 | -75.72306 | 25867 ft | 357 kts | 245° |
| 2026-05-07 00:08 | 38.84172 | -75.75070 | 25870 ft | 358 kts | 245° |
| 2026-05-07 00:08 | 38.82925 | -75.77830 | 25876 ft | 358 kts | 245° |
| 2026-05-07 00:08 | 38.81677 | -75.80589 | 25903 ft | 358 kts | 245° |
| 2026-05-07 00:09 | 38.80433 | -75.83342 | 25911 ft | 357 kts | 246° |
| 2026-05-07 00:09 | 38.79193 | -75.86089 | 25920 ft | 356 kts | 246° |
| 2026-05-07 00:09 | 38.77954 | -75.88833 | 25921 ft | 355 kts | 246° |
| 2026-05-07 00:09 | 38.76718 | -75.91567 | 25920 ft | 355 kts | 246° |
| 2026-05-07 00:10 | 38.75480 | -75.94300 | 25910 ft | 354 kts | 246° |
| 2026-05-07 00:10 | 38.74192 | -75.96995 | 25906 ft | 358 kts | 241° |
| 2026-05-07 00:10 | 38.72520 | -75.99404 | 25863 ft | 367 kts | 230° |
| 2026-05-07 00:10 | 38.70495 | -76.01455 | 25865 ft | 373 kts | 226° |
| 2026-05-07 00:11 | 38.68422 | -76.03462 | 25867 ft | 374 kts | 226° |
| 2026-05-07 00:11 | 38.66349 | -76.05475 | 25876 ft | 374 kts | 226° |
| 2026-05-07 00:11 | 38.64278 | -76.07488 | 25874 ft | 375 kts | 226° |
| 2026-05-07 00:11 | 38.62200 | -76.09511 | 25877 ft | 375 kts | 226° |
| 2026-05-07 00:12 | 38.60126 | -76.11530 | 25877 ft | 375 kts | 226° |
| 2026-05-07 00:12 | 38.58045 | -76.13555 | 25879 ft | 376 kts | 226° |
| 2026-05-07 00:12 | 38.55964 | -76.15577 | 25908 ft | 375 kts | 226° |
| 2026-05-07 00:12 | 38.53917 | -76.17564 | 25912 ft | 375 kts | 226° |
| 2026-05-07 00:13 | 38.51843 | -76.19574 | 25879 ft | 374 kts | 226° |
| 2026-05-07 00:13 | 38.49771 | -76.21580 | 25875 ft | 374 kts | 226° |
| 2026-05-07 00:13 | 38.47695 | -76.23584 | 25873 ft | 375 kts | 226° |
| 2026-05-07 00:13 | 38.45615 | -76.25586 | 25872 ft | 375 kts | 226° |
| 2026-05-07 00:14 | 38.43532 | -76.27594 | 25867 ft | 375 kts | 226° |
| 2026-05-07 00:14 | 38.41449 | -76.29604 | 25868 ft | 375 kts | 226° |
| 2026-05-07 00:14 | 38.39367 | -76.31612 | 25868 ft | 376 kts | 226° |
| 2026-05-07 00:14 | 38.37282 | -76.33622 | 25870 ft | 376 kts | 226° |
| 2026-05-07 00:15 | 38.35195 | -76.35634 | 25871 ft | 376 kts | 226° |
| 2026-05-07 00:15 | 38.33108 | -76.37643 | 25872 ft | 376 kts | 226° |
| 2026-05-07 00:15 | 38.31024 | -76.39649 | 25846 ft | 376 kts | 225° |
| 2026-05-07 00:15 | 38.28994 | -76.41730 | 25850 ft | 371 kts | 231° |
| 2026-05-07 00:16 | 38.27211 | -76.44075 | 25856 ft | 368 kts | 234° |
| 2026-05-07 00:16 | 38.25452 | -76.46447 | 25858 ft | 368 kts | 234° |
| 2026-05-07 00:16 | 38.23692 | -76.48818 | 25861 ft | 369 kts | 233° |
| 2026-05-07 00:16 | 38.21929 | -76.51187 | 25874 ft | 369 kts | 233° |
| 2026-05-07 00:17 | 38.20162 | -76.53558 | 25878 ft | 369 kts | 233° |
| 2026-05-07 00:17 | 38.18399 | -76.55922 | 25884 ft | 368 kts | 233° |
| 2026-05-07 00:17 | 38.16636 | -76.58282 | 25886 ft | 368 kts | 233° |
| 2026-05-07 00:17 | 38.14874 | -76.60638 | 25886 ft | 368 kts | 233° |
| 2026-05-07 00:18 | 38.13113 | -76.62991 | 25888 ft | 367 kts | 233° |
| 2026-05-07 00:18 | 38.11354 | -76.65339 | 25854 ft | 367 kts | 233° |
| 2026-05-07 00:18 | 38.09590 | -76.67692 | 25857 ft | 368 kts | 233° |
| 2026-05-07 00:18 | 38.07827 | -76.70049 | 25860 ft | 369 kts | 233° |
| 2026-05-07 00:19 | 38.06063 | -76.72413 | 25865 ft | 369 kts | 233° |
| 2026-05-07 00:19 | 38.04289 | -76.74787 | 25869 ft | 370 kts | 233° |
| 2026-05-07 00:19 | 38.02516 | -76.77154 | 25871 ft | 370 kts | 233° |
| 2026-05-07 00:19 | 38.00740 | -76.79518 | 25879 ft | 371 kts | 233° |
| 2026-05-07 00:20 | 37.98952 | -76.81876 | 25881 ft | 372 kts | 231° |
| 2026-05-07 00:20 | 37.96925 | -76.83972 | 25885 ft | 382 kts | 221° |
| 2026-05-07 00:20 | 37.94580 | -76.85562 | 25887 ft | 394 kts | 212° |
| 2026-05-07 00:20 | 37.91992 | -76.86769 | 25908 ft | 397 kts | 209° |
| 2026-05-07 00:21 | 37.89388 | -76.87950 | 25886 ft | 397 kts | 209° |
| 2026-05-07 00:21 | 37.86784 | -76.89125 | 25890 ft | 397 kts | 209° |
| 2026-05-07 00:21 | 37.84180 | -76.90298 | 25894 ft | 398 kts | 209° |
| 2026-05-07 00:21 | 37.81570 | -76.91473 | 25897 ft | 398 kts | 209° |
| 2026-05-07 00:22 | 37.78964 | -76.92649 | 25910 ft | 398 kts | 209° |
| 2026-05-07 00:22 | 37.76356 | -76.93832 | 25913 ft | 398 kts | 209° |
| 2026-05-07 00:22 | 37.73753 | -76.95014 | 25916 ft | 398 kts | 209° |
| 2026-05-07 00:22 | 37.71150 | -76.96196 | 25917 ft | 397 kts | 209° |
| 2026-05-07 00:23 | 37.68545 | -76.97377 | 25920 ft | 397 kts | 209° |
| 2026-05-07 00:23 | 37.65943 | -76.98553 | 25919 ft | 397 kts | 209° |
| 2026-05-07 00:23 | 37.63341 | -76.99727 | 25919 ft | 397 kts | 209° |
| 2026-05-07 00:23 | 37.60740 | -77.00898 | 25913 ft | 397 kts | 209° |
| 2026-05-07 00:24 | 37.58176 | -77.02052 | 25909 ft | 396 kts | 209° |
| 2026-05-07 00:24 | 37.55578 | -77.03223 | 25911 ft | 396 kts | 209° |
| 2026-05-07 00:24 | 37.52981 | -77.04391 | 25909 ft | 396 kts | 209° |
| 2026-05-07 00:24 | 37.50384 | -77.05558 | 25907 ft | 396 kts | 209° |
| 2026-05-07 00:25 | 37.47786 | -77.06726 | 25897 ft | 396 kts | 209° |
| 2026-05-07 00:25 | 37.45187 | -77.07896 | 25878 ft | 397 kts | 208° |
| 2026-05-07 00:25 | 37.42591 | -77.09067 | 25882 ft | 397 kts | 209° |
| 2026-05-07 00:25 | 37.40148 | -77.10565 | 25884 ft | 385 kts | 220° |
| 2026-05-07 00:26 | 37.37901 | -77.12398 | 25889 ft | 385 kts | 221° |
| 2026-05-07 00:26 | 37.35657 | -77.14238 | 25894 ft | 385 kts | 221° |
| 2026-05-07 00:26 | 37.33410 | -77.16081 | 25892 ft | 386 kts | 221° |
| 2026-05-07 00:26 | 37.31163 | -77.17921 | 25896 ft | 386 kts | 221° |
| 2026-05-07 00:27 | 37.28912 | -77.19763 | 25897 ft | 386 kts | 221° |
| 2026-05-07 00:27 | 37.26662 | -77.21604 | 25898 ft | 386 kts | 221° |
| 2026-05-07 00:27 | 37.24408 | -77.23447 | 25920 ft | 388 kts | 220° |
| 2026-05-07 00:27 | 37.22137 | -77.25306 | 25924 ft | 390 kts | 220° |
| 2026-05-07 00:28 | 37.19887 | -77.27140 | 25927 ft | 390 kts | 220° |
| 2026-05-07 00:28 | 37.17614 | -77.28990 | 25929 ft | 390 kts | 220° |
| 2026-05-07 00:28 | 37.15337 | -77.30841 | 25934 ft | 390 kts | 220° |
| 2026-05-07 00:28 | 37.13057 | -77.32690 | 25935 ft | 390 kts | 220° |
| 2026-05-07 00:29 | 37.10778 | -77.34538 | 25935 ft | 390 kts | 220° |
| 2026-05-07 00:29 | 37.08503 | -77.36385 | 25932 ft | 390 kts | 220° |
| 2026-05-07 00:30 | 37.01561 | -77.42036 | 25942 ft | 406 kts | 219° |
| 2026-05-07 00:30 | 36.99183 | -77.43966 | 25943 ft | 408 kts | 219° |
| 2026-05-07 00:30 | 36.96798 | -77.45896 | 25938 ft | 409 kts | 219° |
| 2026-05-07 00:30 | 36.94407 | -77.47823 | 25941 ft | 409 kts | 219° |
| 2026-05-07 00:31 | 36.92009 | -77.49754 | 25949 ft | 409 kts | 219° |
| 2026-05-07 00:31 | 36.89615 | -77.51679 | 25956 ft | 409 kts | 219° |
| 2026-05-07 00:31 | 36.87224 | -77.53605 | 25953 ft | 409 kts | 219° |
| 2026-05-07 00:31 | 36.84838 | -77.55529 | 25616 ft | 407 kts | 219° |
| 2026-05-07 00:32 | 36.82459 | -77.57447 | 25373 ft | 406 kts | 219° |
| 2026-05-07 00:32 | 36.80084 | -77.59364 | 24837 ft | 405 kts | 218° |
| 2026-05-07 00:32 | 36.77728 | -77.61263 | 24261 ft | 402 kts | 218° |
| 2026-05-07 00:32 | 36.75414 | -77.63125 | 23670 ft | 398 kts | 218° |
| 2026-05-07 00:33 | 36.73092 | -77.64987 | 23036 ft | 394 kts | 218° |
| 2026-05-07 00:33 | 36.70796 | -77.66822 | 22485 ft | 391 kts | 218° |
| 2026-05-07 00:33 | 36.68515 | -77.68647 | 21950 ft | 388 kts | 219° |
| 2026-05-07 00:33 | 36.66259 | -77.70455 | 21431 ft | 384 kts | 219° |
| 2026-05-07 00:34 | 36.64015 | -77.72255 | 20922 ft | 381 kts | 219° |
| 2026-05-07 00:34 | 36.61792 | -77.74037 | 20423 ft | 379 kts | 219° |
| 2026-05-07 00:34 | 36.59584 | -77.75806 | 19906 ft | 376 kts | 219° |
| 2026-05-07 00:34 | 36.57387 | -77.77564 | 19451 ft | 375 kts | 219° |
| 2026-05-07 00:35 | 36.55202 | -77.79311 | 18970 ft | 373 kts | 219° |
| 2026-05-07 00:35 | 36.53025 | -77.81050 | 18479 ft | 371 kts | 219° |
| 2026-05-07 00:35 | 36.50865 | -77.82775 | 17926 ft | 368 kts | 219° |
| 2026-05-07 00:35 | 36.48727 | -77.84476 | 17448 ft | 362 kts | 219° |
| 2026-05-07 00:36 | 36.46616 | -77.86154 | 16936 ft | 360 kts | 219° |
| 2026-05-07 00:36 | 36.44494 | -77.87849 | 16409 ft | 363 kts | 219° |
| 2026-05-07 00:36 | 36.42374 | -77.89538 | 15874 ft | 361 kts | 218° |
| 2026-05-07 00:36 | 36.40268 | -77.91213 | 15335 ft | 358 kts | 218° |
| 2026-05-07 00:37 | 36.38181 | -77.92871 | 14798 ft | 355 kts | 218° |
| 2026-05-07 00:37 | 36.36105 | -77.94516 | 14253 ft | 353 kts | 218° |
| 2026-05-07 00:37 | 36.34044 | -77.96149 | 13720 ft | 350 kts | 217° |
| 2026-05-07 00:37 | 36.31999 | -77.97771 | 13138 ft | 348 kts | 217° |
| 2026-05-07 00:38 | 36.29974 | -77.99373 | 12604 ft | 343 kts | 217° |
| 2026-05-07 00:38 | 36.27976 | -78.00954 | 12067 ft | 338 kts | 217° |
| 2026-05-07 00:38 | 36.26002 | -78.02518 | 11542 ft | 335 kts | 217° |
| 2026-05-07 00:38 | 36.24168 | -78.04181 | 11029 ft | 327 kts | 227° |
| 2026-05-07 00:39 | 36.22723 | -78.06287 | 10635 ft | 315 kts | 239° |
| 2026-05-07 00:39 | 36.21738 | -78.08618 | 10518 ft | 297 kts | 248° |
| 2026-05-07 00:39 | 36.20906 | -78.10884 | 10403 ft | 283 kts | 247° |
| 2026-05-07 00:39 | 36.20101 | -78.13047 | 10287 ft | 271 kts | 247° |
| 2026-05-07 00:40 | 36.19332 | -78.15130 | 10175 ft | 262 kts | 248° |
| 2026-05-07 00:40 | 36.18856 | -78.16529 | 10102 ft | 260 kts | 249° |
| 2026-05-07 00:40 | 36.18187 | -78.18608 | 10060 ft | 260 kts | 250° |
| 2026-05-07 00:40 | 36.17533 | -78.20660 | 9994 ft | 259 kts | 250° |
| 2026-05-07 00:41 | 36.16861 | -78.22750 | 9499 ft | 265 kts | 250° |
| 2026-05-07 00:41 | 36.16175 | -78.24851 | 9144 ft | 260 kts | 249° |
| 2026-05-07 00:41 | 36.15491 | -78.26917 | 8583 ft | 258 kts | 249° |
| 2026-05-07 00:41 | 36.14905 | -78.29001 | 8050 ft | 255 kts | 258° |
| 2026-05-07 00:42 | 36.14533 | -78.31138 | 7578 ft | 252 kts | 258° |
| 2026-05-07 00:42 | 36.14161 | -78.33238 | 7178 ft | 248 kts | 258° |
| 2026-05-07 00:42 | 36.13786 | -78.35343 | 6597 ft | 252 kts | 258° |
| 2026-05-07 00:42 | 36.13412 | -78.37434 | 6330 ft | 246 kts | 258° |
| 2026-05-07 00:43 | 36.13047 | -78.39456 | 6185 ft | 236 kts | 258° |
| 2026-05-07 00:43 | 36.12690 | -78.41426 | 6049 ft | 234 kts | 258° |
| 2026-05-07 00:43 | 36.12338 | -78.43382 | 5653 ft | 232 kts | 257° |
| 2026-05-07 00:43 | 36.11979 | -78.45323 | 5231 ft | 231 kts | 255° |
| 2026-05-07 00:44 | 36.11474 | -78.47212 | 4804 ft | 231 kts | 251° |
| 2026-05-07 00:44 | 36.10921 | -78.49077 | 4349 ft | 231 kts | 250° |
| 2026-05-07 00:44 | 36.10380 | -78.50947 | 3900 ft | 230 kts | 250° |
| 2026-05-07 00:44 | 36.09656 | -78.52648 | 3695 ft | 220 kts | 230° |
| 2026-05-07 00:45 | 36.08624 | -78.53940 | 3517 ft | 208 kts | 227° |
| 2026-05-07 00:45 | 36.07619 | -78.55180 | 3353 ft | 202 kts | 227° |
| 2026-05-07 00:45 | 36.06630 | -78.56409 | 3181 ft | 201 kts | 227° |
| 2026-05-07 00:45 | 36.05649 | -78.57629 | 3068 ft | 199 kts | 227° |
| 2026-05-07 00:46 | 36.04672 | -78.58844 | 3005 ft | 199 kts | 227° |
| 2026-05-07 00:46 | 36.03694 | -78.60059 | 3007 ft | 200 kts | 226° |
| 2026-05-07 00:46 | 36.02713 | -78.61279 | 3008 ft | 200 kts | 227° |
| 2026-05-07 00:46 | 36.01732 | -78.62499 | 3004 ft | 200 kts | 227° |
| 2026-05-07 00:47 | 36.00749 | -78.63720 | 3006 ft | 200 kts | 227° |
| 2026-05-07 00:47 | 35.99764 | -78.64943 | 3004 ft | 201 kts | 227° |
| 2026-05-07 00:47 | 35.98776 | -78.66168 | 2891 ft | 201 kts | 226° |
| 2026-05-07 00:47 | 35.97797 | -78.67382 | 2682 ft | 196 kts | 227° |
| 2026-05-07 00:48 | 35.96860 | -78.68542 | 2444 ft | 185 kts | 227° |
| 2026-05-07 00:48 | 35.95986 | -78.69626 | 2247 ft | 173 kts | 226° |
| 2026-05-07 00:48 | 35.95153 | -78.70658 | 1994 ft | 164 kts | 226° |
| 2026-05-07 00:48 | 35.94384 | -78.71609 | 1780 ft | 149 kts | 226° |
| 2026-05-07 00:49 | 35.93693 | -78.72466 | 1598 ft | 134 kts | 227° |
| 2026-05-07 00:49 | 35.93055 | -78.73256 | 1422 ft | 127 kts | 225° |
| 2026-05-07 00:49 | 35.92447 | -78.74008 | 1267 ft | 124 kts | 225° |
| 2026-05-07 00:49 | 35.91823 | -78.74782 | 1109 ft | 126 kts | 225° |
| 2026-05-07 00:50 | 35.91205 | -78.75547 | 948 ft | 126 kts | 224° |
| 2026-05-07 00:50 | 35.90583 | -78.76317 | 799 ft | 127 kts | 225° |
| 2026-05-07 00:50 | 35.89965 | -78.77088 | 609 ft | 126 kts | 226° |
| 2026-05-07 00:50 | 35.89354 | -78.77842 | 422 ft | 126 kts | 224° |
| 2026-05-07 00:51 | 35.88783 | -78.78548 | 393 ft | 98 kts | 224° |
| 2026-05-07 00:51 | 35.88434 | -78.78974 | 391 ft | 37 kts | 224° |
| 2026-05-07 00:51 | 35.88285 | -78.79069 | 391 ft | 16 kts | 161° |
| 2026-05-07 00:51 | 35.88240 | -78.79027 | 391 ft | 0 kts | 140° |
| 2026-05-07 00:52 | 35.88237 | -78.79027 | 391 ft | 1 kts | 162° |
| 2026-05-07 00:52 | 35.88222 | -78.79039 | 391 ft | 5 kts | 229° |
| 2026-05-07 00:52 | 35.88217 | -78.79046 | 391 ft | 0 kts | 230° |
| 2026-05-07 00:53 | 35.88216 | -78.79048 | 391 ft | 2 kts | 231° |
| 2026-05-07 00:53 | 35.88197 | -78.79077 | 391 ft | 6 kts | 230° |
| 2026-05-07 00:54 | 35.88163 | -78.79121 | 392 ft | 8 kts | 225° |
| 2026-05-07 00:54 | 35.88116 | -78.79179 | 392 ft | 11 kts | 224° |
| 2026-05-07 00:54 | 35.88055 | -78.79251 | 392 ft | 13 kts | 224° |
| 2026-05-07 00:54 | 35.87984 | -78.79342 | 392 ft | 16 kts | 225° |
| 2026-05-07 00:55 | 35.87900 | -78.79446 | 392 ft | 18 kts | 225° |
| 2026-05-07 00:55 | 35.87802 | -78.79567 | 392 ft | 21 kts | 225° |
| 2026-05-07 00:55 | 35.87698 | -78.79695 | 392 ft | 22 kts | 225° |
| 2026-05-07 00:55 | 35.87599 | -78.79816 | 391 ft | 10 kts | 225° |
| 2026-05-07 00:56 | 35.87540 | -78.79813 | 391 ft | 11 kts | 127° |
| 2026-05-07 00:56 | 35.87479 | -78.79746 | 392 ft | 13 kts | 137° |
| 2026-05-07 00:56 | 35.87425 | -78.79682 | 392 ft | 9 kts | 136° |
| 2026-05-07 00:56 | 35.87412 | -78.79621 | 392 ft | 7 kts | 64° |
| 2026-05-07 00:57 | 35.87440 | -78.79583 | 392 ft | 5 kts | 47° |
| 2026-05-07 00:57 | 35.87443 | -78.79579 | 392 ft | 0 kts | 48° |
| 2026-05-07 00:57 | 35.87445 | -78.79577 | 392 ft | 1 kts | 47° |
| 2026-05-07 00:57 | 35.87453 | -78.79567 | 392 ft | 2 kts | 45° |
| 2026-05-07 00:58 | 35.87467 | -78.79554 | 392 ft | 2 kts | 22° |
| 2026-05-07 00:58 | 35.87478 | -78.79556 | 392 ft | 2 kts | 346° |
| 2026-05-07 00:58 | 35.87487 | -78.79566 | 392 ft | 2 kts | 319° |
| 2026-05-07 00:58 | 35.87495 | -78.79575 | 392 ft | 2 kts | 315° |
| 2026-05-07 00:59 | 35.87506 | -78.79588 | 392 ft | 0 kts | 316° |